Time;durP1;ratioP1;P1;durP2;ratioP2;P2;SDS_P1;SDS_P2;PMS_P1;PMS_P2;Temp;Humidity;BMP_temperature;BMP_pressure;BME280_temperature;BME280_humidity;BME280_pressure;Samples;Min_cycle;Max_cycle;Signal;HPM_P1;HPM_P2
2022/06/19 00:00:46;;;;;;;4.43;0.98;;;16.80;82.10;;;;;;4180197;28;20098;-83
2022/06/19 00:02:47;;;;;;;8.95;1.42;;;16.70;81.80;;;;;;4180192;28;20048;-84
2022/06/19 00:04:49;;;;;;;3.42;0.65;;;16.70;81.80;;;;;;4180526;28;20049;-83
2022/06/19 00:06:51;;;;;;;5.97;1.15;;;16.70;81.80;;;;;;4183695;28;20488;-83
2022/06/19 00:08:52;;;;;;;7.05;0.93;;;16.60;81.50;;;;;;4183410;28;20051;-83
2022/06/19 00:10:52;;;;;;;4.70;0.60;;;16.60;81.30;;;;;;4183244;28;20124;-83
2022/06/19 00:12:54;;;;;;;7.32;1.10;;;16.50;81.00;;;;;;4181502;28;20405;-84
2022/06/19 00:14:54;;;;;;;2.67;0.98;;;16.50;81.10;;;;;;4183232;28;20128;-83
2022/06/19 00:16:55;;;;;;;4.25;0.90;;;16.50;81.50;;;;;;4183339;28;20103;-83
2022/06/19 00:18:56;;;;;;;4.32;0.85;;;16.50;81.40;;;;;;4182786;28;20049;-83
2022/06/19 00:20:57;;;;;;;7.40;1.20;;;16.40;81.70;;;;;;4183309;28;20379;-83
2022/06/19 00:22:57;;;;;;;5.15;0.75;;;16.40;82.20;;;;;;4181848;28;20131;-83
2022/06/19 00:24:58;;;;;;;6.93;1.20;;;16.50;82.30;;;;;;4182094;28;20048;-83
2022/06/19 00:26:59;;;;;;;5.55;1.05;;;16.40;82.50;;;;;;4183290;28;20132;-83
2022/06/19 00:29:00;;;;;;;5.90;0.70;;;16.40;82.80;;;;;;4183297;28;20396;-84
2022/06/19 00:31:01;;;;;;;4.82;1.20;;;16.40;83.10;;;;;;4181943;28;20045;-84
2022/06/19 00:33:02;;;;;;;9.07;1.20;;;16.40;83.50;;;;;;4183218;28;20473;-84
2022/06/19 00:35:04;;;;;;;7.53;1.08;;;16.40;83.80;;;;;;4181426;28;20076;-83
2022/06/19 00:37:05;;;;;;;7.50;1.63;;;16.50;84.20;;;;;;4183152;28;20056;-83
2022/06/19 00:39:06;;;;;;;6.70;1.17;;;16.50;84.80;;;;;;4183135;28;20048;-83
2022/06/19 00:41:07;;;;;;;7.97;1.00;;;16.50;85.10;;;;;;4183100;28;20045;-83
2022/06/19 00:43:08;;;;;;;9.68;1.08;;;16.50;85.20;;;;;;4181571;28;20048;-83
2022/06/19 00:45:29;;;;;;;8.90;1.63;;;16.50;85.50;;;;;;4180918;28;20057;-83
2022/06/19 00:47:35;;;;;;;4.93;0.80;;;16.50;86.70;;;;;;4178618;28;20425;-83
2022/06/19 00:49:41;;;;;;;5.20;0.88;;;16.50;86.20;;;;;;4182728;28;20045;-83
2022/06/19 00:51:43;;;;;;;6.03;1.00;;;16.50;86.90;;;;;;4182886;28;20059;-84
2022/06/19 00:53:47;;;;;;;7.30;1.65;;;16.40;87.30;;;;;;4182837;28;20072;-83
2022/06/19 00:55:50;;;;;;;8.05;1.23;;;16.40;87.90;;;;;;4182352;28;20060;-83
2022/06/19 00:58:00;;;;;;;6.22;1.25;;;16.40;88.30;;;;;;4182772;28;20477;-83
2022/06/19 01:00:12;;;;;;;6.05;1.08;;;16.40;88.70;;;;;;4164834;28;20060;-83
2022/06/19 01:02:14;;;;;;;9.52;1.00;;;16.40;89.70;;;;;;4182759;28;20052;-83
2022/06/19 01:04:24;;;;;;;13.70;1.83;;;16.40;89.30;;;;;;4181956;28;20045;-83
2022/06/19 01:06:26;;;;;;;9.05;1.63;;;16.40;89.70;;;;;;4182313;28;20045;-83
2022/06/19 01:08:27;;;;;;;11.90;1.98;;;16.40;89.80;;;;;;4182565;28;20062;-83
2022/06/19 01:10:31;;;;;;;10.38;1.25;;;16.30;90.00;;;;;;4182601;28;20048;-83
2022/06/19 01:12:32;;;;;;;10.35;1.77;;;16.30;90.10;;;;;;4182621;28;20045;-83
2022/06/19 01:14:33;;;;;;;9.50;1.10;;;16.30;90.00;;;;;;4182304;28;20498;-83
2022/06/19 01:16:34;;;;;;;5.88;1.60;;;16.30;89.90;;;;;;4181674;28;20067;-83
2022/06/19 01:18:38;;;;;;;13.98;1.70;;;16.30;89.80;;;;;;4181672;28;20490;-83
2022/06/19 01:20:40;;;;;;;6.65;1.35;;;16.30;90.10;;;;;;4182234;28;20048;-83
2022/06/19 01:22:53;;;;;;;10.95;1.63;;;16.30;89.80;;;;;;4182732;28;20409;-83
2022/06/19 01:25:15;;;;;;;9.85;1.30;;;16.20;90.20;;;;;;4182474;28;20052;-83
2022/06/19 01:29:47;;;;;;;13.13;1.80;;;16.10;90.50;;;;;;4163765;28;20495;-83
2022/06/19 01:31:52;;;;;;;8.60;1.70;;;16.10;90.60;;;;;;4180518;28;20052;-83
2022/06/19 01:33:57;;;;;;;10.27;2.35;;;16.10;90.90;;;;;;4182357;28;20133;-83
2022/06/19 01:36:00;;;;;;;14.35;2.40;;;16.10;91.10;;;;;;4182257;28;20102;-83
2022/06/19 01:38:05;;;;;;;11.40;1.95;;;16.00;91.30;;;;;;4182078;28;20068;-83
2022/06/19 01:40:12;;;;;;;8.43;1.90;;;16.00;91.60;;;;;;4180789;28;20080;-83
2022/06/19 01:42:13;;;;;;;13.50;1.98;;;16.00;91.70;;;;;;4180755;28;20060;-82
2022/06/19 01:44:13;;;;;;;6.95;1.15;;;16.00;91.50;;;;;;4181475;28;20048;-82
2022/06/19 01:46:16;;;;;;;12.27;1.73;;;16.00;92.00;;;;;;4182115;28;20044;-82
2022/06/19 01:48:17;;;;;;;9.55;1.60;;;16.00;92.60;;;;;;4182050;28;20096;-83
2022/06/19 01:50:22;;;;;;;10.73;1.92;;;15.90;93.20;;;;;;4182020;28;20041;-83
2022/06/19 01:52:27;;;;;;;5.70;1.73;;;16.00;93.40;;;;;;4182029;28;20053;-83
2022/06/19 01:54:34;;;;;;;10.98;1.23;;;15.90;93.80;;;;;;4182037;28;20041;-83
2022/06/19 01:56:35;;;;;;;15.70;1.48;;;15.90;94.10;;;;;;4181714;28;20080;-83
2022/06/19 01:58:39;;;;;;;12.15;1.35;;;15.90;94.30;;;;;;4180514;28;20498;-82
2022/06/19 02:00:43;;;;;;;10.85;1.92;;;15.90;94.80;;;;;;4180159;28;20057;-82
2022/06/19 02:02:49;;;;;;;10.38;1.73;;;15.90;95.10;;;;;;4181689;28;20052;-83
2022/06/19 02:04:51;;;;;;;16.10;2.95;;;15.80;95.40;;;;;;4180433;28;20080;-83
2022/06/19 02:06:57;;;;;;;5.55;2.60;;;15.80;95.50;;;;;;4182096;28;20110;-83
2022/06/19 02:09:00;;;;;;;11.20;1.48;;;15.80;95.80;;;;;;4181763;28;20448;-82
2022/06/19 02:11:03;;;;;;;13.00;1.33;;;15.80;95.90;;;;;;4181318;28;20081;-82
2022/06/19 02:13:04;;;;;;;10.90;1.40;;;15.70;96.10;;;;;;4181461;28;20444;-82
2022/06/19 02:15:08;;;;;;;18.85;1.98;;;15.70;96.30;;;;;;4181505;28;20048;-83
2022/06/19 02:17:42;;;;;;;11.60;1.70;;;15.70;96.40;;;;;;4181540;28;20508;-83
2022/06/19 02:19:43;;;;;;;14.18;1.58;;;15.60;96.90;;;;;;4179606;28;20083;-83
2022/06/19 02:21:48;;;;;;;15.10;2.65;;;15.70;96.40;;;;;;4180543;28;20490;-83
2022/06/19 02:23:49;;;;;;;8.30;1.48;;;15.60;96.70;;;;;;4180723;28;20052;-83
2022/06/19 02:25:51;;;;;;;9.63;1.75;;;15.60;96.50;;;;;;4181793;28;20551;-83
2022/06/19 02:27:52;;;;;;;7.78;1.40;;;15.60;96.70;;;;;;4180278;28;20045;-83
2022/06/19 02:29:54;;;;;;;7.00;1.73;;;15.60;97.10;;;;;;4163583;28;20049;-83
2022/06/19 02:31:56;;;;;;;13.23;1.90;;;15.60;97.10;;;;;;4181078;28;20052;-83
2022/06/19 02:34:03;;;;;;;8.50;1.48;;;15.60;96.90;;;;;;4181363;28;20091;-83
2022/06/19 02:36:33;;;;;;;8.43;1.45;;;15.60;97.00;;;;;;4181583;28;20044;-83
2022/06/19 02:38:34;;;;;;;9.52;1.85;;;15.50;97.50;;;;;;4181057;28;20045;-82
2022/06/19 02:40:41;;;;;;;9.25;1.35;;;15.50;97.30;;;;;;4180821;28;20497;-82
2022/06/19 02:42:44;;;;;;;14.05;1.73;;;15.50;97.60;;;;;;4181372;28;20049;-83
2022/06/19 02:44:48;;;;;;;6.78;1.73;;;15.50;97.60;;;;;;4181238;28;20525;-83
2022/06/19 02:46:49;;;;;;;7.88;2.10;;;15.50;97.60;;;;;;4181301;28;20390;-83
2022/06/19 02:48:50;;;;;;;12.18;2.50;;;15.60;97.60;;;;;;4180872;28;20052;-84
2022/06/19 02:50:51;;;;;;;13.48;1.65;;;15.60;97.50;;;;;;4180008;28;20401;-83
2022/06/19 02:52:52;;;;;;;12.10;2.33;;;15.60;97.70;;;;;;4180858;28;20051;-83
2022/06/19 02:54:53;;;;;;;12.90;1.67;;;15.50;97.70;;;;;;4181211;28;20056;-83
2022/06/19 02:56:54;;;;;;;10.48;1.45;;;15.60;97.60;;;;;;4179815;28;20041;-83
2022/06/19 02:58:55;;;;;;;13.32;1.77;;;15.50;97.60;;;;;;4183066;28;20051;-83
2022/06/19 03:00:55;;;;;;;16.00;1.38;;;15.60;97.70;;;;;;4197563;28;20394;-84
2022/06/19 03:03:00;;;;;;;17.55;2.08;;;15.60;97.60;;;;;;4197215;28;20109;-84
2022/06/19 03:05:03;;;;;;;9.70;1.40;;;15.50;97.30;;;;;;4197788;28;20048;-83
2022/06/19 03:07:04;;;;;;;8.80;1.23;;;15.50;97.30;;;;;;4197098;28;20045;-84
2022/06/19 03:09:05;;;;;;;12.20;1.60;;;15.50;97.40;;;;;;4197469;28;20178;-83
2022/06/19 03:11:07;;;;;;;12.88;2.00;;;15.50;97.40;;;;;;4197357;28;20075;-83
2022/06/19 03:13:08;;;;;;;8.23;1.33;;;15.40;97.20;;;;;;4197076;28;20101;-83
2022/06/19 03:15:09;;;;;;;11.55;1.55;;;15.40;97.00;;;;;;4196850;28;20505;-83
2022/06/19 03:17:21;;;;;;;13.52;2.17;;;15.30;97.00;;;;;;4197176;28;20048;-84
2022/06/19 03:19:22;;;;;;;10.90;1.40;;;15.30;97.40;;;;;;4197216;28;20036;-83
2022/06/19 03:21:23;;;;;;;10.65;1.92;;;15.30;97.20;;;;;;4196580;28;20134;-83
2022/06/19 03:23:24;;;;;;;9.27;1.45;;;15.30;97.20;;;;;;4195920;28;20432;-83
2022/06/19 03:25:25;;;;;;;6.03;1.20;;;15.30;97.10;;;;;;4197188;28;20114;-83
2022/06/19 03:27:25;;;;;;;10.52;2.13;;;15.30;96.90;;;;;;4197313;28;20048;-83
2022/06/19 03:29:26;;;;;;;6.88;1.50;;;15.30;96.90;;;;;;4196665;28;20045;-83
2022/06/19 03:31:29;;;;;;;11.15;1.33;;;15.30;96.90;;;;;;4197197;28;20493;-83
2022/06/19 03:33:32;;;;;;;14.93;1.60;;;15.30;96.90;;;;;;4197141;28;20102;-83
2022/06/19 03:35:33;;;;;;;6.68;1.42;;;15.20;96.90;;;;;;4197158;28;20440;-84
2022/06/19 03:37:35;;;;;;;15.40;2.47;;;15.10;96.60;;;;;;4196761;28;20043;-84
2022/06/19 03:39:36;;;;;;;16.30;2.35;;;15.10;96.50;;;;;;4196699;28;20047;-84
2022/06/19 03:41:38;;;;;;;14.15;2.85;;;15.00;96.60;;;;;;4195595;28;20517;-83
2022/06/19 03:43:39;;;;;;;12.85;1.45;;;14.90;96.40;;;;;;4196763;28;20045;-83
2022/06/19 03:45:39;;;;;;;11.23;1.40;;;14.90;96.60;;;;;;4196917;28;20090;-83
2022/06/19 03:47:40;;;;;;;7.88;1.60;;;14.90;96.90;;;;;;4197013;28;20037;-83
2022/06/19 03:49:41;;;;;;;11.93;1.40;;;14.80;97.20;;;;;;4195661;28;20436;-83
2022/06/19 03:51:42;;;;;;;8.75;1.60;;;14.80;97.60;;;;;;4196639;28;20052;-84
2022/06/19 03:53:43;;;;;;;15.18;2.20;;;14.80;98.00;;;;;;4195536;28;20056;-84
2022/06/19 03:55:44;;;;;;;10.95;1.60;;;14.80;98.30;;;;;;4196950;28;20072;-84
2022/06/19 03:57:45;;;;;;;6.93;1.50;;;14.70;98.50;;;;;;4196992;28;20049;-84
2022/06/19 03:59:46;;;;;;;13.57;1.88;;;14.70;98.80;;;;;;4196833;28;20052;-83
2022/06/19 04:01:47;;;;;;;14.23;2.20;;;14.60;99.10;;;;;;4197088;28;20106;-84
2022/06/19 04:03:49;;;;;;;8.77;1.70;;;14.60;99.30;;;;;;4195426;28;20094;-84
2022/06/19 04:05:50;;;;;;;15.45;1.75;;;14.60;99.60;;;;;;4197060;28;20080;-83
2022/06/19 04:07:51;;;;;;;14.98;2.20;;;14.50;99.80;;;;;;4195930;28;20084;-84
2022/06/19 04:09:57;;;;;;;13.57;2.95;;;14.50;99.90;;;;;;4197189;28;20105;-84
2022/06/19 04:11:58;;;;;;;10.40;1.38;;;14.50;99.90;;;;;;4195839;28;20060;-84
2022/06/19 04:13:59;;;;;;;13.73;1.92;;;14.50;99.90;;;;;;4196488;28;20049;-84
2022/06/19 04:15:59;;;;;;;11.20;2.42;;;14.60;99.90;;;;;;4195536;28;20084;-85
2022/06/19 04:18:00;;;;;;;9.13;1.55;;;14.60;99.90;;;;;;4195790;28;20168;-84
2022/06/19 04:20:01;;;;;;;15.88;2.28;;;14.60;99.90;;;;;;4196872;28;20051;-84
2022/06/19 04:22:03;;;;;;;18.23;2.17;;;14.60;99.90;;;;;;4198523;28;20088;-84
2022/06/19 04:24:04;;;;;;;10.00;1.88;;;14.60;99.90;;;;;;4196903;28;20106;-86
2022/06/19 04:26:10;;;;;;;9.18;1.95;;;14.60;99.90;;;;;;4195110;28;20074;-84
2022/06/19 04:28:10;;;;;;;11.02;2.13;;;14.60;99.90;;;;;;4196704;28;20059;-85
2022/06/19 04:30:13;;;;;;;10.27;1.25;;;14.60;99.90;;;;;;4196629;28;20580;-85
2022/06/19 04:32:13;;;;;;;13.27;1.73;;;14.60;99.90;;;;;;4196814;28;20051;-84
2022/06/19 04:34:14;;;;;;;6.43;1.42;;;14.60;99.90;;;;;;4196769;28;20119;-85
2022/06/19 04:36:17;;;;;;;10.63;1.88;;;14.60;99.90;;;;;;4196497;28;20053;-84
2022/06/19 04:38:18;;;;;;;7.20;1.42;;;14.60;99.90;;;;;;4195423;28;20233;-84
2022/06/19 04:40:18;;;;;;;10.88;1.40;;;14.50;99.90;;;;;;4196924;28;20541;-84
2022/06/19 04:42:19;;;;;;;10.30;1.73;;;14.50;99.90;;;;;;4197079;28;20083;-84
2022/06/19 04:44:20;;;;;;;12.02;1.27;;;14.40;99.90;;;;;;4196824;28;20032;-84
2022/06/19 04:46:22;;;;;;;9.10;1.50;;;14.40;99.90;;;;;;4196936;28;20079;-84
2022/06/19 04:48:25;;;;;;;10.43;1.92;;;14.40;99.90;;;;;;4195801;28;20114;-84
2022/06/19 04:50:26;;;;;;;12.90;2.05;;;14.40;99.90;;;;;;4195494;28;20052;-85
2022/06/19 04:52:27;;;;;;;6.70;1.63;;;14.30;99.90;;;;;;4196919;28;20045;-85
2022/06/19 04:54:28;;;;;;;5.97;1.23;;;14.20;99.90;;;;;;4199481;28;20041;-84
2022/06/19 04:56:29;;;;;;;7.38;1.63;;;14.20;99.90;;;;;;4199704;28;20118;-84
2022/06/19 04:58:30;;;;;;;4.65;0.80;;;14.10;99.90;;;;;;4198488;28;19920;-84
2022/06/19 05:00:31;;;;;;;9.27;1.02;;;14.10;99.90;;;;;;4184598;28;20127;-84
2022/06/19 05:02:32;;;;;;;8.75;1.17;;;14.00;99.90;;;;;;4182021;28;20751;-84
2022/06/19 05:04:33;;;;;;;5.82;0.82;;;13.90;99.90;;;;;;4183119;28;20048;-84
2022/06/19 05:06:33;;;;;;;8.93;1.05;;;13.90;99.90;;;;;;4181387;28;20083;-84
2022/06/19 05:08:34;;;;;;;5.78;1.02;;;13.90;99.90;;;;;;4182719;28;20037;-85
2022/06/19 05:10:35;;;;;;;6.50;1.20;;;13.80;99.90;;;;;;4182394;28;20041;-84
2022/06/19 05:12:37;;;;;;;7.15;1.13;;;13.90;99.90;;;;;;4182720;28;20052;-84
2022/06/19 05:14:40;;;;;;;11.27;1.55;;;13.90;99.90;;;;;;4182485;28;20045;-84
2022/06/19 05:16:41;;;;;;;5.43;1.05;;;13.90;99.90;;;;;;4181022;28;20056;-84
2022/06/19 05:18:43;;;;;;;6.70;1.30;;;13.90;99.90;;;;;;4182694;28;20037;-83
2022/06/19 05:20:44;;;;;;;9.90;1.60;;;13.90;99.90;;;;;;4182581;28;20120;-84
2022/06/19 05:22:44;;;;;;;12.68;1.42;;;13.90;99.90;;;;;;4182014;28;20432;-84
2022/06/19 05:24:45;;;;;;;12.13;1.65;;;13.90;99.90;;;;;;4182515;28;20140;-84
2022/06/19 05:26:46;;;;;;;13.63;1.40;;;14.00;99.90;;;;;;4181364;28;20045;-84
2022/06/19 05:28:48;;;;;;;6.88;1.27;;;13.90;99.90;;;;;;4181384;28;20136;-84
2022/06/19 05:30:49;;;;;;;10.85;1.85;;;14.00;99.90;;;;;;4182686;28;20049;-84
2022/06/19 05:32:50;;;;;;;8.00;1.23;;;14.00;99.90;;;;;;4180575;28;20045;-84
2022/06/19 05:34:53;;;;;;;8.63;0.98;;;14.00;99.90;;;;;;4181656;28;20120;-84
2022/06/19 05:36:54;;;;;;;11.90;1.40;;;14.00;99.90;;;;;;4191724;28;20126;-84
2022/06/19 05:38:57;;;;;;;6.63;1.27;;;14.00;99.90;;;;;;4182097;28;20095;-84
2022/06/19 05:40:59;;;;;;;14.57;1.65;;;14.00;99.90;;;;;;4187412;28;20090;-84
2022/06/19 05:43:00;;;;;;;12.48;2.40;;;14.00;99.90;;;;;;4198840;28;20044;-84
2022/06/19 05:45:01;;;;;;;12.57;1.88;;;14.00;99.90;;;;;;4198986;28;20047;-84
2022/06/19 05:47:01;;;;;;;13.30;2.80;;;14.00;99.90;;;;;;4196716;28;20052;-84
2022/06/19 05:49:03;;;;;;;11.07;1.30;;;13.90;99.90;;;;;;4198652;28;20164;-84
2022/06/19 05:51:11;;;;;;;9.20;2.38;;;14.00;99.90;;;;;;4198894;28;20540;-84
2022/06/19 05:53:12;;;;;;;14.40;2.30;;;13.90;99.90;;;;;;4192725;28;20049;-85
2022/06/19 05:55:13;;;;;;;11.15;1.52;;;13.90;99.90;;;;;;4182070;28;20451;-85
2022/06/19 05:57:14;;;;;;;13.02;2.13;;;13.80;99.90;;;;;;4180648;28;20055;-84
2022/06/19 05:59:15;;;;;;;14.27;1.33;;;13.80;99.90;;;;;;4181475;28;20076;-84
2022/06/19 06:01:18;;;;;;;14.80;1.95;;;13.80;99.90;;;;;;4181809;28;20045;-85
2022/06/19 06:03:21;;;;;;;13.65;2.05;;;13.80;99.90;;;;;;4181755;28;20439;-85
2022/06/19 06:05:22;;;;;;;7.75;1.80;;;13.80;99.90;;;;;;4182044;28;20044;-84
2022/06/19 06:07:22;;;;;;;16.13;2.13;;;13.80;99.90;;;;;;4181725;28;20040;-84
2022/06/19 06:09:24;;;;;;;9.55;1.60;;;13.80;99.90;;;;;;4180704;28;20048;-84
2022/06/19 06:11:24;;;;;;;7.60;1.20;;;13.80;99.90;;;;;;4181957;28;20393;-84
2022/06/19 06:13:25;;;;;;;22.17;1.50;;;13.80;99.90;;;;;;4181429;28;20033;-84
2022/06/19 06:15:26;;;;;;;8.07;1.50;;;13.80;99.90;;;;;;4180154;28;20056;-84
2022/06/19 06:17:27;;;;;;;12.63;2.25;;;13.80;99.90;;;;;;4181436;28;20120;-84
2022/06/19 06:19:28;;;;;;;8.93;1.60;;;13.80;99.90;;;;;;4180391;28;20051;-84
2022/06/19 06:21:30;;;;;;;10.27;1.20;;;13.90;99.90;;;;;;4181539;28;20127;-84
2022/06/19 06:23:31;;;;;;;9.98;1.67;;;13.90;99.90;;;;;;4180687;28;20041;-85
2022/06/19 06:25:32;;;;;;;11.23;1.48;;;13.90;99.90;;;;;;4179735;28;20107;-85
2022/06/19 06:27:33;;;;;;;9.93;1.25;;;14.00;99.90;;;;;;4181497;28;20049;-84
2022/06/19 06:29:34;;;;;;;8.40;1.08;;;14.00;99.90;;;;;;4186033;28;20033;-85
2022/06/19 06:31:35;;;;;;;10.43;1.08;;;14.00;99.90;;;;;;4198002;28;20044;-84
2022/06/19 06:33:36;;;;;;;8.88;1.20;;;14.00;99.90;;;;;;4198391;28;20499;-85
2022/06/19 06:35:38;;;;;;;11.00;1.08;;;14.10;99.90;;;;;;4198029;28;20040;-84
2022/06/19 06:37:38;;;;;;;9.05;1.40;;;14.10;99.90;;;;;;4197152;28;20063;-84
2022/06/19 06:39:39;;;;;;;9.85;1.00;;;14.20;99.90;;;;;;4197973;28;20493;-85
2022/06/19 06:41:40;;;;;;;9.40;2.05;;;14.30;99.90;;;;;;4198018;28;20048;-84
2022/06/19 06:43:43;;;;;;;9.13;1.48;;;14.30;99.90;;;;;;4197996;28;20044;-83
2022/06/19 06:45:43;;;;;;;8.23;1.70;;;14.40;99.90;;;;;;4197975;28;20040;-84
2022/06/19 06:47:44;;;;;;;8.25;1.27;;;14.40;99.90;;;;;;4197281;28;20182;-84
2022/06/19 06:49:45;;;;;;;14.05;1.23;;;14.40;99.90;;;;;;4197957;28;20119;-84
2022/06/19 06:51:46;;;;;;;7.43;1.92;;;14.50;99.90;;;;;;4197525;28;20504;-84
2022/06/19 06:53:47;;;;;;;9.45;1.40;;;14.50;99.90;;;;;;4197596;28;20040;-84
2022/06/19 06:55:48;;;;;;;9.68;1.73;;;14.50;99.90;;;;;;4197781;28;20047;-84
2022/06/19 06:57:49;;;;;;;10.50;2.13;;;14.60;99.90;;;;;;4179282;28;20136;-84
2022/06/19 06:59:49;;;;;;;6.82;1.00;;;14.60;99.90;;;;;;4197589;28;20048;-83
2022/06/19 07:01:51;;;;;;;6.75;1.20;;;14.60;99.90;;;;;;4197653;28;20040;-84
2022/06/19 07:03:56;;;;;;;10.80;1.45;;;14.60;99.90;;;;;;4182838;28;20060;-83
2022/06/19 07:05:57;;;;;;;8.38;1.15;;;14.60;99.90;;;;;;4185087;28;20052;-82
2022/06/19 07:07:59;;;;;;;17.58;1.75;;;14.60;99.90;;;;;;4195913;28;20057;-84
2022/06/19 07:09:59;;;;;;;11.90;1.67;;;14.70;99.90;;;;;;4196897;28;20044;-84
2022/06/19 07:12:02;;;;;;;7.55;1.17;;;14.70;99.90;;;;;;4192873;28;20189;-84
2022/06/19 07:14:03;;;;;;;12.10;1.25;;;14.60;99.90;;;;;;4187932;28;20040;-84
2022/06/19 07:16:04;;;;;;;6.60;1.75;;;14.70;99.90;;;;;;4195267;28;20075;-84
2022/06/19 07:18:05;;;;;;;4.63;1.00;;;14.60;99.90;;;;;;4190401;28;20120;-83
2022/06/19 07:20:06;;;;;;;7.38;1.20;;;14.60;99.90;;;;;;4180090;28;20057;-84
2022/06/19 07:22:12;;;;;;;10.18;1.88;;;14.70;99.90;;;;;;4180462;28;20395;-84
2022/06/19 07:24:13;;;;;;;4.82;1.38;;;14.60;99.90;;;;;;4181090;28;20072;-83
2022/06/19 07:26:17;;;;;;;8.45;1.30;;;14.70;99.90;;;;;;4180786;28;20049;-84
2022/06/19 07:28:18;;;;;;;4.03;0.80;;;14.70;99.90;;;;;;4179712;28;20053;-83
2022/06/19 07:30:22;;;;;;;5.68;1.15;;;14.70;99.90;;;;;;4187908;28;20051;-83
2022/06/19 07:32:23;;;;;;;4.85;1.15;;;14.80;99.90;;;;;;4197585;28;20057;-83
2022/06/19 07:34:23;;;;;;;5.32;1.00;;;14.80;99.90;;;;;;4197004;28;20490;-83
2022/06/19 07:36:24;;;;;;;10.13;1.60;;;14.80;99.90;;;;;;4198035;28;20480;-84
2022/06/19 07:38:25;;;;;;;7.70;1.10;;;14.80;99.90;;;;;;4198468;28;20044;-83
2022/06/19 07:40:26;;;;;;;8.80;1.02;;;14.80;99.90;;;;;;4199047;28;20047;-83
2022/06/19 07:42:27;;;;;;;7.60;0.90;;;14.90;99.90;;;;;;4197808;28;20051;-83
2022/06/19 07:44:27;;;;;;;2.97;0.68;;;14.90;99.90;;;;;;4197765;28;20048;-83
2022/06/19 07:46:29;;;;;;;5.43;0.85;;;15.00;99.90;;;;;;4198615;28;20044;-83
2022/06/19 07:50:49;;;;;;;8.60;1.05;;;15.10;99.90;;;;;;4197075;28;20047;-83
2022/06/19 07:52:51;;;;;;;8.18;1.33;;;15.10;99.90;;;;;;4196042;28;20481;-83
2022/06/19 07:54:51;;;;;;;5.82;1.52;;;15.10;99.90;;;;;;4195632;28;20049;-84
2022/06/19 07:56:52;;;;;;;4.82;1.40;;;15.10;99.90;;;;;;4196576;28;20516;-83
2022/06/19 07:58:53;;;;;;;6.43;1.70;;;15.10;99.90;;;;;;4197122;28;20045;-83
2022/06/19 08:00:53;;;;;;;7.05;1.38;;;15.10;99.90;;;;;;4197152;28;20044;-84
2022/06/19 08:02:54;;;;;;;7.85;1.33;;;15.10;99.90;;;;;;4195689;28;20048;-83
2022/06/19 08:04:55;;;;;;;8.77;0.85;;;15.10;99.90;;;;;;4198473;28;20485;-83
2022/06/19 08:06:55;;;;;;;13.35;1.27;;;15.10;99.90;;;;;;4189225;28;20040;-84
2022/06/19 08:08:57;;;;;;;3.50;1.33;;;15.10;99.90;;;;;;4179925;28;20052;-84
2022/06/19 08:10:59;;;;;;;9.10;1.60;;;15.00;99.90;;;;;;4180507;28;20076;-84
2022/06/19 08:13:00;;;;;;;10.40;1.63;;;15.10;99.90;;;;;;4179508;28;20049;-82
2022/06/19 08:15:01;;;;;;;6.95;0.80;;;15.00;99.90;;;;;;4179984;28;20493;-84
2022/06/19 08:17:03;;;;;;;9.65;1.27;;;15.00;99.90;;;;;;4179005;28;20045;-84
2022/06/19 08:19:04;;;;;;;5.22;1.63;;;15.00;99.90;;;;;;4179855;28;20540;-84
2022/06/19 08:21:05;;;;;;;6.50;1.42;;;15.00;99.90;;;;;;4180294;28;20041;-85
2022/06/19 08:23:06;;;;;;;5.88;1.00;;;15.10;99.90;;;;;;4180067;28;20047;-84
2022/06/19 08:25:08;;;;;;;4.75;1.38;;;15.10;99.90;;;;;;4180541;28;20077;-84
2022/06/19 08:27:09;;;;;;;11.23;0.80;;;15.10;99.90;;;;;;4182403;28;20144;-84
2022/06/19 08:29:10;;;;;;;3.53;0.73;;;15.10;99.90;;;;;;4183511;28;20129;-84
2022/06/19 08:31:11;;;;;;;10.45;1.10;;;15.10;99.90;;;;;;4182903;28;20053;-83
2022/06/19 08:33:11;;;;;;;7.53;1.00;;;15.20;99.90;;;;;;4183575;28;20040;-83
2022/06/19 08:35:12;;;;;;;8.52;1.05;;;15.20;99.90;;;;;;4183429;28;20049;-84
2022/06/19 08:37:14;;;;;;;12.05;2.22;;;15.20;99.90;;;;;;4182154;28;20076;-83
2022/06/19 08:39:17;;;;;;;7.85;1.30;;;15.20;99.90;;;;;;4182901;28;20102;-84
2022/06/19 08:42:02;;;;;;;12.85;1.20;;;15.30;99.90;;;;;;4182041;28;20048;-83
2022/06/19 08:44:11;;;;;;;6.50;1.30;;;15.40;99.90;;;;;;4158751;28;20153;-83
2022/06/19 08:46:43;;;;;;;8.35;1.13;;;15.40;99.90;;;;;;4183232;28;20048;-83
2022/06/19 08:49:02;;;;;;;5.50;1.13;;;15.40;99.90;;;;;;4183294;28;20056;-83
2022/06/19 08:51:21;;;;;;;5.13;1.02;;;15.50;99.90;;;;;;4183161;28;20045;-84
2022/06/19 08:53:24;;;;;;;;;;;15.50;99.90;;;;;;4183788;28;20081;-84
2022/06/19 08:55:52;;;;;;;10.25;1.55;;;15.60;99.90;;;;;;4183445;28;19928;-84
2022/06/19 08:57:55;;;;;;;9.45;1.00;;;15.60;99.90;;;;;;4182656;28;20060;-84
2022/06/19 09:00:01;;;;;;;9.52;1.38;;;15.70;99.90;;;;;;4183547;28;20373;-84
2022/06/19 09:02:05;;;;;;;3.67;0.88;;;15.70;99.90;;;;;;4183194;28;20048;-84
2022/06/19 09:06:52;;;;;;;5.25;1.02;;;15.80;99.90;;;;;;4189568;28;20036;-83
2022/06/19 09:09:11;;;;;;;7.82;2.05;;;15.80;99.90;;;;;;4200744;28;20546;-83
2022/06/19 09:11:18;;;;;;;5.78;0.90;;;15.80;99.90;;;;;;4200728;28;20047;-84
2022/06/19 09:13:46;;;;;;;3.67;0.80;;;15.80;99.90;;;;;;4198700;28;20531;-84
2022/06/19 09:15:58;;;;;;;5.00;0.77;;;15.90;99.90;;;;;;4199107;28;20099;-84
2022/06/19 09:18:10;;;;;;;9.63;1.05;;;15.90;99.90;;;;;;4199519;28;20045;-84
2022/06/19 09:20:21;;;;;;;4.32;0.70;;;15.90;99.90;;;;;;4198554;28;20040;-83
2022/06/19 09:22:38;;;;;;;5.18;0.93;;;15.90;99.90;;;;;;4199522;28;20045;-83
2022/06/19 09:24:58;;;;;;;3.00;0.75;;;15.90;99.90;;;;;;4199400;28;20080;-83
2022/06/19 09:27:00;;;;;;;6.43;0.75;;;16.00;99.90;;;;;;4199123;28;20052;-83
2022/06/19 09:29:22;;;;;;;3.38;0.80;;;16.00;99.90;;;;;;4198114;28;20131;-83
2022/06/19 09:31:33;;;;;;;3.40;0.90;;;16.10;99.90;;;;;;4199997;28;20037;-84
2022/06/19 09:33:56;;;;;;;3.58;0.70;;;16.10;99.90;;;;;;4194368;28;20041;-85
2022/06/19 09:36:07;;;;;;;8.40;0.93;;;16.20;99.90;;;;;;4182229;28;20524;-83
2022/06/19 09:38:52;;;;;;;2.00;0.57;;;16.30;99.90;;;;;;4181895;28;20076;-83
2022/06/19 09:40:57;;;;;;;5.40;0.80;;;16.30;99.90;;;;;;4137965;28;20650;-85
2022/06/19 09:43:20;;;;;;;4.47;0.65;;;16.30;99.90;;;;;;4182646;28;20041;-84
2022/06/19 09:45:32;;;;;;;2.25;0.73;;;16.30;99.90;;;;;;4182449;28;20389;-84
2022/06/19 09:47:52;;;;;;;2.47;0.80;;;16.40;99.90;;;;;;4182694;28;20128;-84
2022/06/19 09:50:12;;;;;;;1.80;0.60;;;16.40;99.90;;;;;;4182547;28;20559;-84
2022/06/19 09:52:31;;;;;;;3.28;0.65;;;16.40;99.90;;;;;;4182305;28;20127;-83
2022/06/19 09:54:44;;;;;;;3.88;0.60;;;16.40;99.90;;;;;;4182513;28;20517;-84
2022/06/19 09:57:09;;;;;;;4.18;0.95;;;16.50;99.90;;;;;;4180977;28;20155;-84
2022/06/19 09:59:34;;;;;;;2.58;0.63;;;16.50;99.90;;;;;;4182524;28;20071;-83
2022/06/19 10:01:37;;;;;;;4.70;0.77;;;16.60;99.90;;;;;;4181041;28;20076;-83
2022/06/19 10:03:48;;;;;;;6.03;1.08;;;16.80;99.90;;;;;;4182098;28;20048;-83
2022/06/19 10:06:01;;;;;;;7.93;0.90;;;16.80;99.90;;;;;;4181961;28;20456;-83
2022/06/19 10:08:12;;;;;;;6.13;1.13;;;16.90;99.90;;;;;;4181028;28;20062;-83
2022/06/19 10:10:23;;;;;;;6.68;0.80;;;17.00;99.90;;;;;;4181371;28;20091;-83
2022/06/19 10:12:42;;;;;;;2.75;0.45;;;17.00;99.50;;;;;;4181346;28;20103;-85
2022/06/19 10:14:46;;;;;;;3.70;0.77;;;17.00;99.30;;;;;;4181018;28;20051;-85
2022/06/19 10:16:59;;;;;;;1.65;0.40;;;17.00;99.40;;;;;;4181009;28;20094;-83
2022/06/19 10:19:10;;;;;;;3.08;0.60;;;17.00;99.30;;;;;;4180859;28;20052;-82
2022/06/19 10:24:01;;;;;;;3.13;0.50;;;17.10;98.60;;;;;;4180961;28;20052;-83
2022/06/19 10:26:22;;;;;;;2.88;0.65;;;17.20;98.50;;;;;;4185055;28;20326;-82
2022/06/19 10:28:34;;;;;;;1.92;0.60;;;17.40;98.90;;;;;;4185649;28;20468;-83
2022/06/19 10:31:02;;;;;;;4.80;0.60;;;17.50;98.50;;;;;;4180626;28;20051;-82
2022/06/19 10:33:36;;;;;;;5.33;0.43;;;17.50;97.60;;;;;;4180856;28;20049;-82
2022/06/19 10:35:41;;;;;;;2.33;0.20;;;;;;;;;;4180544;28;20284;-82
2022/06/19 10:37:51;;;;;;;1.70;0.40;;;;;;;;;;4180831;28;20051;-82
2022/06/19 10:39:52;;;;;;;0.55;0.20;;;;;;;;;;4180797;28;20508;-82
2022/06/19 10:42:10;;;;;;;1.63;0.28;;;17.60;97.50;;;;;;4180885;28;20060;-82
2022/06/19 10:44:22;;;;;;;3.22;0.40;;;18.00;98.00;;;;;;4188488;28;20079;-82
2022/06/19 10:46:25;;;;;;;0.63;0.52;;;18.10;98.30;;;;;;4197228;28;20049;-82
2022/06/19 10:48:29;;;;;;;3.00;0.95;;;18.00;98.30;;;;;;4197158;28;20378;-81
2022/06/19 10:50:37;;;;;;;2.30;0.40;;;17.90;98.30;;;;;;4197070;28;20051;-81
2022/06/19 10:52:44;;;;;;;0.83;0.23;;;17.90;98.40;;;;;;4197108;28;20517;-82
2022/06/19 10:54:56;;;;;;;1.33;0.38;;;17.90;98.50;;;;;;4196853;28;20098;-82
2022/06/19 10:57:11;;;;;;;1.63;0.50;;;17.90;98.90;;;;;;4196659;28;20127;-82